Time;durP1;ratioP1;P1;durP2;ratioP2;P2;SDS_P1;SDS_P2;PMS_P1;PMS_P2;Temp;Humidity;BMP_temperature;BMP_pressure;BME280_temperature;BME280_humidity;BME280_pressure;Samples;Min_cycle;Max_cycle;Signal;HPM_P1;HPM_P2
2023/04/08 00:02:20;;;;;;;11.03;5.25;;;;;;;9.89;73.98;100944.27;1794613;79;21343;-63
2023/04/08 00:05:27;;;;;;;15.40;6.22;;;;;;;9.86;74.09;100945.95;1803166;79;21154;-64
2023/04/08 00:08:33;;;;;;;14.45;5.87;;;;;;;9.83;74.19;100933.44;1802205;79;21323;-65
2023/04/08 00:11:40;;;;;;;15.43;5.17;;;;;;;9.83;74.24;100941.64;1802291;78;21208;-63
2023/04/08 00:14:47;;;;;;;14.93;5.85;;;;;;;9.82;74.25;100937.20;1802230;79;21218;-63
2023/04/08 00:17:53;;;;;;;14.15;5.50;;;;;;;9.78;74.20;100942.65;1802999;79;21236;-63
2023/04/08 00:21:00;;;;;;;10.95;6.17;;;;;;;9.74;74.19;100933.02;1802260;78;21298;-63
2023/04/08 00:24:07;;;;;;;15.58;6.25;;;;;;;9.71;74.26;100940.17;1803169;79;21173;-62
2023/04/08 00:27:14;;;;;;;16.40;6.00;;;;;;;9.69;74.39;100946.30;1803337;79;21335;-62
2023/04/08 00:30:20;;;;;;;14.30;6.42;;;;;;;9.70;74.48;100943.06;1802765;79;21331;-63
2023/04/08 00:33:26;;;;;;;13.95;6.15;;;;;;;9.70;74.54;100943.94;1802542;79;21339;-61
2023/04/08 00:36:32;;;;;;;11.05;5.78;;;;;;;9.67;74.50;100936.02;1793829;79;21185;-62
2023/04/08 00:39:39;;;;;;;10.43;5.33;;;;;;;9.67;74.57;100939.28;1803130;78;21189;-61
2023/04/08 00:42:45;;;;;;;16.55;6.40;;;;;;;9.67;74.64;100939.28;1803161;79;21368;-63
2023/04/08 00:45:50;;;;;;;17.32;7.10;;;;;;;9.65;74.62;100939.44;1801256;79;21217;-62
2023/04/08 00:48:58;;;;;;;19.75;6.58;;;;;;;9.64;74.65;100939.60;1802513;79;21366;-63
2023/04/08 00:52:05;;;;;;;16.00;6.60;;;;;;;9.61;74.64;100939.91;1802469;79;21253;-62
2023/04/08 00:55:13;;;;;;;16.25;6.55;;;;;;;9.56;74.63;100936.25;1802606;79;21378;-63
2023/04/08 00:58:19;;;;;;;17.57;6.70;;;;;;;9.53;74.69;100933.84;1802353;78;21311;-64
2023/04/08 01:01:41;;;;;;;15.03;6.75;;;;;;;9.47;74.67;100938.56;1794260;79;21193;-63
2023/04/08 01:04:58;;;;;;;15.65;6.05;;;;;;;9.45;74.75;100939.75;1802568;78;21355;-64
2023/04/08 01:08:03;;;;;;;14.15;6.05;;;;;;;9.42;74.84;100938.16;1802317;79;21774;-67
2023/04/08 01:11:09;;;;;;;15.43;6.20;;;;;;;9.40;74.87;100944.81;1802335;79;21374;-63
2023/04/08 01:14:16;;;;;;;14.03;6.45;;;;;;;9.38;74.95;100935.41;1802225;79;21338;-64
2023/04/08 01:17:22;;;;;;;17.10;7.10;;;;;;;9.38;74.99;100939.50;1802439;79;21328;-63
2023/04/08 01:20:30;;;;;;;15.38;6.15;;;;;;;9.38;75.02;100942.73;1802375;79;21324;-62
2023/04/08 01:23:47;;;;;;;15.63;6.10;;;;;;;9.37;75.03;100944.59;1803229;79;21240;-62
2023/04/08 01:26:52;;;;;;;13.85;6.08;;;;;;;9.35;75.09;100941.19;1803763;79;21217;-63
2023/04/08 01:29:59;;;;;;;15.93;6.37;;;;;;;9.36;75.20;100944.75;1802403;79;21174;-62
2023/04/08 01:33:04;;;;;;;16.93;6.80;;;;;;;9.38;75.25;100946.83;1803004;78;21246;-62
2023/04/08 01:36:11;;;;;;;15.13;6.08;;;;;;;9.38;75.27;100942.73;1802626;79;21379;-61
2023/04/08 01:39:16;;;;;;;11.50;6.03;;;;;;;9.39;75.31;100943.94;1802003;79;21181;-63
2023/04/08 01:42:23;;;;;;;15.25;7.00;;;;;;;9.40;75.36;100940.22;1802479;79;21314;-62
2023/04/08 01:45:28;;;;;;;16.30;6.15;;;;;;;9.42;75.38;100949.09;1802478;79;21209;-64
2023/04/08 01:48:35;;;;;;;13.10;6.15;;;;;;;9.42;75.40;100938.16;1803037;77;21194;-63
2023/04/08 01:51:43;;;;;;;14.98;6.53;;;;;;;9.46;75.41;100946.92;1802814;79;21343;-62
2023/04/08 01:54:49;;;;;;;10.93;6.42;;;;;;;9.46;75.35;100939.59;1803142;79;21414;-63
2023/04/08 01:57:58;;;;;;;15.53;6.53;;;;;;;9.45;75.30;100940.58;1802796;79;21340;-63
2023/04/08 02:01:05;;;;;;;10.80;5.50;;;;;;;9.45;75.31;100944.69;1803118;79;21193;-63
2023/04/08 02:04:12;;;;;;;18.17;6.40;;;;;;;9.45;75.35;100943.31;1802575;79;21710;-61
2023/04/08 02:07:21;;;;;;;17.45;5.37;;;;;;;9.44;75.37;100945.70;1802718;79;21201;-62
2023/04/08 02:10:22;;;;;;;11.95;6.17;;;;;;;9.41;75.35;100948.75;1802547;79;21285;-63
2023/04/08 02:13:29;;;;;;;17.00;6.95;;;;;;;9.37;75.30;100943.23;1802440;79;21371;-63
2023/04/08 02:16:41;;;;;;;14.07;6.28;;;;;;;9.34;75.35;100942.70;1802561;79;21273;-62
2023/04/08 02:20:11;;;;;;;15.38;5.90;;;;;;;9.30;75.35;100945.37;1802824;79;21508;-63
2023/04/08 02:23:28;;;;;;;12.55;6.05;;;;;;;9.24;75.34;100941.41;1802763;79;21197;-64
2023/04/08 02:26:33;;;;;;;9.88;6.00;;;;;;;9.18;75.38;100938.42;1802762;79;21265;-64
2023/04/08 02:29:41;;;;;;;14.33;6.65;;;;;;;9.14;75.40;100937.86;1802922;79;21355;-63
2023/04/08 02:32:48;;;;;;;16.67;6.37;;;;;;;9.09;75.47;100945.65;1802747;78;21162;-63
2023/04/08 02:35:57;;;;;;;12.58;6.58;;;;;;;9.05;75.53;100945.09;1802846;79;21358;-63
2023/04/08 02:39:05;;;;;;;13.32;5.60;;;;;;;9.02;75.59;100950.86;1802946;79;21182;-63
2023/04/08 02:42:12;;;;;;;14.85;6.85;;;;;;;8.97;75.56;100955.08;1802872;79;21709;-62
2023/04/08 02:45:18;;;;;;;16.87;6.10;;;;;;;8.94;75.53;100962.20;1802822;79;21186;-63
2023/04/08 02:48:24;;;;;;;16.00;6.85;;;;;;;8.87;75.49;100960.58;1800718;79;21209;-63
2023/04/08 02:51:31;;;;;;;15.68;6.10;;;;;;;8.84;75.49;100964.11;1803535;79;21371;-63
2023/04/08 02:54:36;;;;;;;12.93;6.30;;;;;;;8.79;75.46;100964.56;1803323;79;21190;-62
2023/04/08 02:57:44;;;;;;;20.52;6.28;;;;;;;8.73;75.42;100965.67;1802972;79;21213;-63
2023/04/08 03:00:51;;;;;;;15.70;6.47;;;;;;;8.69;75.39;100979.24;1802516;79;21225;-62
2023/04/08 03:03:58;;;;;;;17.50;6.42;;;;;;;8.64;75.39;100981.58;1802747;78;21178;-62
2023/04/08 03:07:05;;;;;;;18.45;6.42;;;;;;;8.60;75.41;100991.06;1802806;79;21328;-63
2023/04/08 03:10:14;;;;;;;13.30;6.17;;;;;;;8.54;75.44;100985.70;1802683;79;21367;-62
2023/04/08 03:13:20;;;;;;;13.00;7.35;;;;;;;8.52;75.45;100995.03;1802623;79;21150;-62
2023/04/08 03:16:26;;;;;;;15.32;7.03;;;;;;;8.46;75.41;100990.17;1802675;79;21213;-62
2023/04/08 03:19:32;;;;;;;12.45;6.37;;;;;;;8.42;75.42;100992.86;1802723;79;21312;-63
2023/04/08 03:22:40;;;;;;;17.70;6.83;;;;;;;8.39;75.39;100997.20;1802893;79;21387;-62
2023/04/08 03:25:48;;;;;;;15.45;7.78;;;;;;;8.34;75.36;100990.84;1803409;79;21346;-63
2023/04/08 03:28:55;;;;;;;21.77;7.53;;;;;;;8.31;75.33;100997.11;1802742;78;21304;-63
2023/04/08 03:32:02;;;;;;;13.13;7.90;;;;;;;8.27;75.31;100995.67;1802479;79;21245;-62
2023/04/08 03:35:07;;;;;;;21.42;9.60;;;;;;;8.25;75.36;100999.91;1802684;79;21223;-62
2023/04/08 03:38:15;;;;;;;15.70;8.45;;;;;;;8.24;75.41;100998.20;1802887;79;21327;-63
2023/04/08 03:41:21;;;;;;;16.77;9.33;;;;;;;8.23;75.41;101001.08;1802926;79;21383;-63
2023/04/08 03:44:26;;;;;;;19.40;7.80;;;;;;;8.23;75.42;101009.25;1802787;79;21217;-63
2023/04/08 03:47:32;;;;;;;20.32;8.10;;;;;;;8.23;75.46;101011.98;1802923;79;21294;-63
2023/04/08 03:50:38;;;;;;;15.08;7.87;;;;;;;8.26;75.52;101013.05;1800975;79;21245;-62
2023/04/08 03:53:43;;;;;;;19.77;7.65;;;;;;;8.28;75.57;101020.06;1803556;79;21707;-63
2023/04/08 03:56:49;;;;;;;27.32;12.23;;;;;;;8.31;75.64;101016.20;1802668;79;21395;-63
2023/04/08 03:59:55;;;;;;;43.50;19.42;;;;;;;8.36;75.79;101015.23;1803133;79;21237;-63
2023/04/08 04:03:05;;;;;;;44.25;24.47;;;;;;;8.42;75.90;101020.14;1802686;78;21288;-63
2023/04/08 04:06:14;;;;;;;50.28;25.75;;;;;;;8.50;75.99;101025.72;1802764;79;21218;-64
2023/04/08 04:09:19;;;;;;;43.92;22.55;;;;;;;8.56;76.06;101022.40;1802848;79;21209;-62
2023/04/08 04:12:26;;;;;;;30.77;17.40;;;;;;;8.62;76.07;101026.77;1802793;79;21198;-63
2023/04/08 04:15:33;;;;;;;24.65;13.48;;;;;;;8.70;76.08;101035.57;1802646;78;21347;-62
2023/04/08 04:18:40;;;;;;;25.52;13.78;;;;;;;8.77;76.09;101032.59;1795543;79;21710;-63
2023/04/08 04:21:47;;;;;;;21.17;10.58;;;;;;;8.85;76.11;101029.97;1802615;79;21162;-64
2023/04/08 04:24:55;;;;;;;20.60;8.60;;;;;;;8.93;76.15;101039.16;1802119;79;21189;-63
2023/04/08 04:28:02;;;;;;;17.20;6.67;;;;;;;9.03;76.18;101035.02;1802185;79;21256;-60
2023/04/08 04:31:08;;;;;;;13.98;6.67;;;;;;;9.11;76.18;101043.33;1802950;78;21214;-62
2023/04/08 04:34:16;;;;;;;19.80;6.42;;;;;;;9.19;76.13;101047.53;1802310;79;21363;-64
2023/04/08 04:37:22;;;;;;;19.12;7.03;;;;;;;9.26;76.15;101045.89;1802588;79;21245;-63
2023/04/08 04:40:28;;;;;;;18.00;6.83;;;;;;;9.34;76.12;101039.70;1803001;79;21165;-63
2023/04/08 04:43:34;;;;;;;11.90;6.75;;;;;;;9.40;76.13;101048.15;1802609;79;21212;-64
2023/04/08 04:46:41;;;;;;;12.90;6.08;;;;;;;9.49;76.19;101044.49;1774245;78;21189;-63
2023/04/08 04:49:48;;;;;;;13.60;6.15;;;;;;;9.60;76.26;101048.38;1762305;80;21205;-63
2023/04/08 04:52:55;;;;;;;11.78;6.22;;;;;;;9.71;76.29;101050.03;1768639;80;21719;-63
2023/04/08 04:56:01;;;;;;;14.20;6.47;;;;;;;9.83;76.30;101055.12;1758818;80;21198;-63
2023/04/08 04:59:09;;;;;;;13.85;6.83;;;;;;;9.93;76.29;101062.75;1769486;80;21173;-63
2023/04/08 05:02:14;;;;;;;14.40;6.42;;;;;;;10.03;76.32;101060.82;1772689;79;21295;-64
2023/04/08 05:05:20;;;;;;;14.70;6.55;;;;;;;10.15;76.35;101066.43;1770508;80;21203;-62
2023/04/08 05:08:25;;;;;;;14.07;6.60;;;;;;;10.27;76.42;101061.09;1709766;83;21165;-63
2023/04/08 05:11:30;;;;;;;16.15;6.40;;;;;;;10.39;76.44;101066.66;1770077;80;21214;-62
2023/04/08 05:14:41;;;;;;;15.90;7.10;;;;;;;10.51;76.44;101064.00;1770204;80;21182;-63
2023/04/08 05:17:46;;;;;;;19.30;8.90;;;;;;;10.64;76.40;101069.59;1721869;83;21285;-62
2023/04/08 05:20:54;;;;;;;14.87;6.50;;;;;;;10.76;76.38;101068.30;1769391;80;21181;-63
2023/04/08 05:24:02;;;;;;;18.48;7.35;;;;;;;10.86;76.35;101079.49;1769473;80;21185;-63
2023/04/08 05:27:07;;;;;;;12.00;5.97;;;;;;;10.98;76.32;101075.98;1769317;79;21738;-62
2023/04/08 05:30:13;;;;;;;16.07;8.35;;;;;;;11.09;76.23;101079.82;1791763;79;21257;-62
2023/04/08 05:33:21;;;;;;;20.35;9.83;;;;;;;11.20;76.17;101079.55;1795167;79;21750;-63
2023/04/08 05:36:27;;;;;;;12.73;7.17;;;;;;;11.31;76.12;101083.37;1793496;78;21229;-63
2023/04/08 05:39:33;;;;;;;17.95;7.47;;;;;;;11.41;76.08;101082.74;1776309;79;21225;-63
2023/04/08 05:42:41;;;;;;;14.10;6.47;;;;;;;11.51;76.03;101090.34;1770260;79;21229;-63
2023/04/08 05:45:47;;;;;;;10.68;6.50;;;;;;;11.61;76.02;101089.17;1769275;79;21201;-63
2023/04/08 05:48:53;;;;;;;10.63;6.00;;;;;;;11.72;76.00;101083.92;1770411;80;21189;-63
2023/04/08 05:52:01;;;;;;;18.40;7.37;;;;;;;11.84;76.02;101089.47;1787885;79;21213;-63
2023/04/08 05:55:07;;;;;;;13.93;6.33;;;;;;;11.93;75.96;101079.72;1772436;79;21197;-63
2023/04/08 05:58:13;;;;;;;13.80;6.40;;;;;;;12.03;75.88;101087.81;1770602;79;21758;-63
2023/04/08 06:01:19;;;;;;;12.15;5.58;;;;;;;12.12;75.82;101089.53;1770938;80;21221;-64
2023/04/08 06:04:25;;;;;;;16.90;5.72;;;;;;;12.20;75.77;101090.92;1763017;81;21251;-64
2023/04/08 06:07:32;;;;;;;13.88;6.30;;;;;;;12.29;75.71;101093.18;1770977;80;21193;-64
2023/04/08 06:10:38;;;;;;;13.48;6.70;;;;;;;12.38;75.68;101095.77;1762531;81;21205;-63
2023/04/08 06:13:44;;;;;;;11.35;5.90;;;;;;;12.48;75.67;101096.97;1770722;81;21169;-63
2023/04/08 06:16:52;;;;;;;8.43;5.03;;;;;;;12.57;75.64;101100.93;1781984;79;21233;-62
2023/04/08 06:19:58;;;;;;;12.73;5.55;;;;;;;12.67;75.62;101091.14;1765684;80;21197;-63
2023/04/08 06:23:04;;;;;;;13.22;5.80;;;;;;;12.78;75.53;101101.78;1751500;81;21387;-63
2023/04/08 06:26:10;;;;;;;14.53;5.92;;;;;;;12.86;75.39;101100.41;1735343;81;21259;-63
2023/04/08 06:29:16;;;;;;;14.20;5.42;;;;;;;12.92;75.32;101100.55;1751058;81;21343;-64
2023/04/08 06:32:23;;;;;;;12.40;5.47;;;;;;;13.01;75.27;101105.06;1735596;81;21216;-62
2023/04/08 06:35:30;;;;;;;11.10;5.30;;;;;;;13.11;75.23;101109.83;1751921;81;21249;-64
2023/04/08 06:38:36;;;;;;;11.90;5.58;;;;;;;13.20;75.22;101113.44;1735248;82;21287;-64
2023/04/08 06:41:44;;;;;;;11.83;5.12;;;;;;;13.29;75.20;101115.99;1721508;83;21245;-64
2023/04/08 06:44:52;;;;;;;14.45;6.42;;;;;;;13.36;75.15;101106.02;1705879;84;21200;-64
2023/04/08 06:47:58;;;;;;;14.75;4.60;;;;;;;13.47;75.03;101114.40;1721759;83;21341;-64
2023/04/08 06:51:07;;;;;;;12.82;5.15;;;;;;;13.55;74.92;101117.12;1706293;83;21263;-63
2023/04/08 06:54:13;;;;;;;14.83;5.33;;;;;;;13.62;74.86;101119.48;1723274;82;21206;-65
2023/04/08 06:57:20;;;;;;;11.43;5.33;;;;;;;13.73;74.87;101116.34;1705927;83;21381;-64
2023/04/08 07:00:26;;;;;;;14.68;5.30;;;;;;;13.81;74.74;101116.86;1775830;79;21196;-63
2023/04/08 07:03:33;;;;;;;10.98;5.28;;;;;;;13.88;74.61;101115.95;1762932;80;21578;-64
2023/04/08 07:06:38;;;;;;;11.50;5.70;;;;;;;13.96;74.59;101110.41;1774212;79;21202;-65
2023/04/08 07:09:44;;;;;;;10.88;5.30;;;;;;;14.06;74.55;101111.05;1801087;79;21182;-63
2023/04/08 07:12:52;;;;;;;14.95;5.40;;;;;;;14.16;74.51;101117.71;1801898;79;21213;-64
2023/04/08 07:16:01;;;;;;;13.68;5.35;;;;;;;14.26;74.44;101115.09;1786283;79;21216;-64
2023/04/08 07:19:06;;;;;;;14.33;6.00;;;;;;;14.35;74.37;101113.16;1795370;79;21206;-63
2023/04/08 07:22:12;;;;;;;16.57;5.53;;;;;;;14.43;74.28;101106.21;1800834;79;21409;-64
2023/04/08 07:25:18;;;;;;;10.98;5.12;;;;;;;14.52;74.22;101110.10;1782355;79;21265;-64
2023/04/08 07:28:24;;;;;;;11.12;5.05;;;;;;;14.61;74.20;101107.61;1779894;79;21233;-63
2023/04/08 07:31:30;;;;;;;10.82;5.10;;;;;;;14.71;74.12;101107.36;1790915;79;21217;-64
2023/04/08 07:34:36;;;;;;;13.18;5.85;;;;;;;14.81;73.93;101109.31;1790799;79;21259;-65
2023/04/08 07:37:44;;;;;;;12.25;5.17;;;;;;;14.89;73.81;101099.09;1787573;79;21256;-66
2023/04/08 07:40:49;;;;;;;9.63;4.83;;;;;;;14.96;73.61;101097.83;1774878;79;21177;-65
2023/04/08 07:43:55;;;;;;;19.45;5.30;;;;;;;15.01;73.56;101107.78;1778170;79;21191;-66
2023/04/08 07:47:01;;;;;;;14.95;5.40;;;;;;;15.11;73.63;101102.00;1788031;79;21378;-66
2023/04/08 07:50:07;;;;;;;13.32;5.60;;;;;;;15.20;73.53;101093.45;1786798;79;21424;-64
2023/04/08 07:53:13;;;;;;;16.05;5.15;;;;;;;15.26;73.34;101094.07;1784315;79;21182;-65
2023/04/08 07:56:22;;;;;;;11.88;5.03;;;;;;;15.33;73.32;101089.52;1787717;79;21210;-66
2023/04/08 07:59:30;;;;;;;13.22;4.80;;;;;;;15.42;73.19;101091.17;1790556;78;21217;-64
2023/04/08 08:02:38;;;;;;;14.30;4.72;;;;;;;15.50;73.05;101086.94;1797803;79;21414;-64
2023/04/08 08:05:45;;;;;;;17.75;5.80;;;;;;;15.59;72.96;101084.41;1802107;79;21339;-66
2023/04/08 08:08:51;;;;;;;14.10;5.20;;;;;;;15.70;72.87;101088.58;1802072;79;21382;-64
2023/04/08 08:11:58;;;;;;;8.58;4.37;;;;;;;15.79;72.80;101086.06;1802263;78;21399;-67
2023/04/08 08:14:59;;;;;;;16.35;6.05;;;;;;;15.88;72.68;101083.00;1801332;79;21594;-64
2023/04/08 08:17:52;;;;;;;14.03;5.03;;;;;;;15.95;72.48;101086.69;1783836;79;21320;-64
2023/04/08 08:21:00;;;;;;;10.85;4.72;;;;;;;16.01;72.40;101087.32;1784143;79;21207;-64
2023/04/08 08:24:07;;;;;;;11.40;4.53;;;;;;;16.10;72.36;101086.14;1764130;79;21346;-63
2023/04/08 08:27:13;;;;;;;14.35;4.40;;;;;;;16.18;72.22;101083.27;1785745;79;21766;-65
2023/04/08 08:30:21;;;;;;;17.60;4.60;;;;;;;16.28;72.01;101084.33;1779107;79;21201;-64
2023/04/08 08:33:27;;;;;;;11.55;4.90;;;;;;;16.35;71.92;101083.86;1783166;79;21259;-64
2023/04/08 08:36:35;;;;;;;13.93;4.30;;;;;;;16.43;71.83;101090.64;1770445;79;21254;-63
2023/04/08 08:39:40;;;;;;;16.45;5.10;;;;;;;16.53;71.75;101083.45;1762814;81;21867;-64
2023/04/08 08:42:47;;;;;;;17.75;4.70;;;;;;;16.63;71.62;101079.83;1769546;79;21237;-65
2023/04/08 08:45:53;;;;;;;8.70;4.60;;;;;;;16.72;71.52;101082.27;1769837;80;21191;-64
2023/04/08 08:49:00;;;;;;;13.78;5.00;;;;;;;16.86;71.41;101085.47;1762653;81;21187;-63
2023/04/08 08:52:06;;;;;;;12.53;4.85;;;;;;;16.98;71.34;101084.41;1770393;80;21198;-65
2023/04/08 08:55:11;;;;;;;11.90;4.53;;;;;;;17.05;71.08;101082.54;1769381;80;21269;-66
2023/04/08 08:58:18;;;;;;;11.68;5.12;;;;;;;17.12;70.92;101087.61;1771521;80;21179;-68
2023/04/08 09:01:40;;;;;;;17.15;5.58;;;;;;;17.18;70.68;101089.05;1771239;80;21202;-65
2023/04/08 09:04:51;;;;;;;14.73;5.37;;;;;;;17.22;70.52;101085.36;1771779;80;22009;-65
2023/04/08 09:07:57;;;;;;;18.52;4.95;;;;;;;17.31;70.48;101085.52;1762137;80;21211;-64
2023/04/08 09:11:24;;;;;;;14.30;4.85;;;;;;;17.37;70.21;101084.70;1782833;79;21378;-66
2023/04/08 09:14:32;;;;;;;12.70;5.22;;;;;;;17.40;70.03;101085.67;1801995;79;21382;-65
2023/04/08 09:17:47;;;;;;;10.98;4.92;;;;;;;17.45;69.83;101088.73;1802097;79;21675;-65
2023/04/08 09:21:00;;;;;;;16.12;5.28;;;;;;;17.54;69.77;101084.73;1801447;79;21237;-63
2023/04/08 09:23:59;;;;;;;14.40;5.70;;;;;;;17.61;69.67;101089.27;1802353;78;21186;-65
2023/04/08 09:26:53;;;;;;;15.55;5.17;;;;;;;17.71;69.56;101090.28;1791276;78;21197;-64
2023/04/08 09:30:03;;;;;;;12.95;5.12;;;;;;;17.74;69.27;101082.95;1762076;80;21264;-64
2023/04/08 09:33:09;;;;;;;14.28;5.28;;;;;;;17.80;69.17;101095.97;1795039;78;21181;-65
2023/04/08 09:36:15;;;;;;;10.38;5.22;;;;;;;17.92;69.06;101089.33;1801706;79;21201;-66
2023/04/08 09:39:21;;;;;;;19.12;5.37;;;;;;;18.05;68.94;101092.13;1801745;79;21952;-67
2023/04/08 09:42:28;;;;;;;13.75;4.70;;;;;;;18.13;68.64;101095.58;1802125;79;21158;-64
2023/04/08 09:45:35;;;;;;;15.25;5.17;;;;;;;18.20;68.39;101096.47;1801283;79;21769;-64
2023/04/08 09:48:47;;;;;;;12.60;5.20;;;;;;;18.29;68.28;101086.03;1775022;79;21209;-66
2023/04/08 09:52:07;;;;;;;13.95;5.08;;;;;;;18.40;68.14;101091.87;1734538;82;21483;-64
2023/04/08 09:55:18;;;;;;;10.13;4.53;;;;;;;18.49;67.96;101086.44;1773913;79;21217;-63
2023/04/08 09:58:36;;;;;;;12.53;5.05;;;;;;;18.63;67.80;101087.34;1775761;79;21190;-64
2023/04/08 10:01:57;;;;;;;8.90;3.98;;;;;;;18.71;67.54;101093.52;1768630;79;21209;-65
2023/04/08 10:05:05;;;;;;;8.33;4.17;;;;;;;18.85;67.42;101091.63;1768858;80;21726;-66
2023/04/08 10:08:10;;;;;;;8.33;4.17;;;;;;;19.02;67.23;101098.46;1768104;79;21221;-68
2023/04/08 10:11:16;;;;;;;10.85;4.80;;;;;;;19.16;66.95;101098.78;1769406;79;21739;-64
2023/04/08 10:14:27;;;;;;;9.60;3.58;;;;;;;19.23;66.63;101101.86;1769940;81;21185;-65
2023/04/08 10:17:35;;;;;;;14.80;4.72;;;;;;;19.37;66.43;101104.14;1769920;79;21236;-65
2023/04/08 10:20:47;;;;;;;15.10;4.03;;;;;;;19.55;66.17;101103.48;1770135;79;21591;-63
2023/04/08 10:24:07;;;;;;;14.45;4.17;;;;;;;19.65;65.79;101101.08;1770284;81;21267;-66
2023/04/08 10:27:18;;;;;;;11.10;4.35;;;;;;;19.81;65.52;101097.84;1770518;79;21260;-68
2023/04/08 10:30:38;;;;;;;12.98;4.00;;;;;;;20.02;65.28;101096.17;1764274;80;21256;-64
2023/04/08 10:33:44;;;;;;;15.48;3.98;;;;;;;20.28;65.07;101103.05;1770200;80;21798;-62
2023/04/08 10:36:53;;;;;;;10.65;4.05;;;;;;;20.55;64.72;101097.66;1796509;79;21217;-67
2023/04/08 10:40:01;;;;;;;10.58;4.17;;;;;;;20.69;64.25;101103.45;1802052;79;21660;-68
2023/04/08 10:43:07;;;;;;;10.68;4.20;;;;;;;20.71;63.73;101096.58;1801323;78;21198;-67
2023/04/08 10:46:20;;;;;;;11.78;4.28;;;;;;;20.82;63.53;101096.94;1801501;79;21771;-67
2023/04/08 10:49:21;;;;;;;11.88;4.42;;;;;;;20.91;63.15;101098.36;1794361;79;21837;-68
2023/04/08 10:52:27;;;;;;;13.50;3.98;;;;;;;20.80;62.66;101100.78;1801802;78;21638;-68
2023/04/08 10:55:33;;;;;;;17.10;4.20;;;;;;;20.76;62.60;101095.89;1802398;79;21185;-67
2023/04/08 10:58:42;;;;;;;19.32;4.55;;;;;;;20.93;62.57;101095.66;1800332;79;21328;-68
2023/04/08 11:01:48;;;;;;;12.60;4.90;;;;;;;20.97;62.25;101095.56;1801967;79;21213;-68
2023/04/08 11:04:56;;;;;;;12.58;4.05;;;;;;;20.95;61.85;101089.33;1797085;79;21353;-66
2023/04/08 11:08:04;;;;;;;23.42;4.05;;;;;;;20.97;61.60;101090.00;1764883;80;21253;-68
2023/04/08 11:11:11;;;;;;;11.95;3.77;;;;;;;21.16;61.52;101083.94;1767153;80;21245;-67
2023/04/08 11:14:20;;;;;;;13.45;3.90;;;;;;;21.31;61.17;101092.25;1770071;79;21738;-65
2023/04/08 11:17:27;;;;;;;10.03;3.70;;;;;;;21.12;60.45;101094.67;1794131;79;21205;-67
2023/04/08 11:20:35;;;;;;;12.63;4.50;;;;;;;20.77;59.97;101089.27;1793518;78;21699;-65
2023/04/08 11:23:42;;;;;;;11.95;3.70;;;;;;;20.57;59.95;101086.61;1769976;81;21240;-65
2023/04/08 11:26:49;;;;;;;11.57;4.40;;;;;;;20.55;59.89;101088.75;1769983;79;21228;-64
2023/04/08 11:29:55;;;;;;;12.80;3.72;;;;;;;20.60;59.73;101082.52;1774911;79;21205;-63
2023/04/08 11:33:01;;;;;;;8.65;3.80;;;;;;;20.62;59.39;101074.80;1776776;79;21214;-62
2023/04/08 11:36:09;;;;;;;10.08;3.85;;;;;;;20.59;59.13;101081.69;1788129;78;21418;-65
2023/04/08 11:39:16;;;;;;;10.28;4.10;;;;;;;20.63;59.03;101079.28;1790888;79;21213;-64
2023/04/08 11:42:35;;;;;;;9.75;4.50;;;;;;;20.70;58.85;101077.32;1775642;79;21256;-65
2023/04/08 11:45:46;;;;;;;12.45;3.58;;;;;;;20.74;58.53;101068.82;1785957;79;21813;-65
2023/04/08 11:49:10;;;;;;;14.25;4.83;;;;;;;20.66;58.02;101067.73;1786790;79;21693;-65
2023/04/08 11:52:16;;;;;;;12.25;4.25;;;;;;;20.59;57.83;101065.52;1782211;79;21185;-64
2023/04/08 11:55:36;;;;;;;11.70;4.10;;;;;;;20.56;57.54;101064.58;1782912;79;21543;-64
2023/04/08 11:58:42;;;;;;;9.43;4.05;;;;;;;20.56;57.43;101060.41;1792130;78;21479;-64
2023/04/08 12:01:48;;;;;;;13.45;4.25;;;;;;;20.64;57.24;101060.97;1774705;79;21204;-65
2023/04/08 12:04:54;;;;;;;12.28;3.25;;;;;;;20.77;57.27;101059.48;1792439;79;21213;-64
2023/04/08 12:08:01;;;;;;;8.73;3.20;;;;;;;20.86;57.01;101058.69;1771725;79;21900;-65
2023/04/08 12:11:06;;;;;;;9.43;3.10;;;;;;;20.90;56.71;101054.91;1763529;79;21235;-65
2023/04/08 12:14:14;;;;;;;9.68;3.55;;;;;;;20.93;56.39;101055.29;1793609;79;21193;-65
2023/04/08 12:17:20;;;;;;;9.88;3.75;;;;;;;20.88;55.96;101055.14;1801761;79;21228;-65
2023/04/08 12:20:26;;;;;;;9.88;3.52;;;;;;;20.84;55.73;101048.31;1803068;79;21347;-67
2023/04/08 12:23:32;;;;;;;13.40;3.75;;;;;;;20.96;55.87;101057.68;1801728;79;21590;-66
2023/04/08 12:26:38;;;;;;;12.33;4.15;;;;;;;21.25;56.13;101058.92;1783290;79;21180;-65
2023/04/08 12:29:45;;;;;;;12.40;3.83;;;;;;;21.58;56.19;101051.08;1769998;80;21189;-66
2023/04/08 12:32:54;;;;;;;17.25;4.17;;;;;;;21.83;56.02;101055.53;1769184;81;21784;-67
2023/04/08 12:36:00;;;;;;;15.38;3.92;;;;;;;21.99;55.67;101058.22;1770078;81;21217;-63
2023/04/08 12:39:06;;;;;;;11.38;3.77;;;;;;;22.02;55.26;101053.00;1770299;79;21178;-65
2023/04/08 12:42:12;;;;;;;11.08;3.05;;;;;;;22.15;55.17;101049.22;1771068;81;21415;-63
2023/04/08 12:45:21;;;;;;;13.98;3.55;;;;;;;22.18;54.74;101038.41;1770407;81;21801;-65
2023/04/08 12:48:28;;;;;;;7.85;3.55;;;;;;;22.00;54.31;101050.16;1770291;81;21192;-64
2023/04/08 12:51:35;;;;;;;13.75;3.98;;;;;;;21.61;53.79;101050.04;1770804;80;21213;-65
2023/04/08 12:54:41;;;;;;;14.43;4.17;;;;;;;21.31;53.67;101053.81;1770373;81;21371;-65
2023/04/08 12:57:48;;;;;;;9.08;3.58;;;;;;;21.03;53.49;101058.45;1770257;80;21733;-64
2023/04/08 13:00:56;;;;;;;10.00;3.58;;;;;;;20.67;53.14;101058.30;1780684;79;21166;-67
2023/04/08 13:04:03;;;;;;;8.53;3.17;;;;;;;20.41;53.14;101055.67;1777193;79;21202;-67
2023/04/08 13:07:09;;;;;;;10.63;4.08;;;;;;;20.19;53.01;101063.51;1776832;79;21194;-64
2023/04/08 13:10:16;;;;;;;8.15;4.53;;;;;;;19.83;52.66;101054.02;1771079;81;21213;-65
2023/04/08 13:13:21;;;;;;;13.18;5.15;;;;;;;19.46;52.53;101058.92;1789456;79;21177;-65
2023/04/08 13:16:26;;;;;;;11.70;5.42;;;;;;;19.07;52.39;101063.47;1747161;81;21224;-64
2023/04/08 13:19:32;;;;;;;11.48;4.83;;;;;;;18.81;52.48;101062.06;1770035;80;21675;-66
2023/04/08 13:22:40;;;;;;;14.47;5.37;;;;;;;18.66;52.52;101066.11;1769645;80;21231;-65
2023/04/08 13:25:46;;;;;;;13.88;4.60;;;;;;;18.52;52.50;101060.23;1769865;79;21848;-65
2023/04/08 13:28:53;;;;;;;12.88;5.37;;;;;;;18.40;52.57;101052.19;1769559;79;21562;-67
2023/04/08 13:32:00;;;;;;;11.65;5.12;;;;;;;18.33;52.59;101059.06;1770089;80;21264;-66
2023/04/08 13:35:07;;;;;;;14.53;5.30;;;;;;;18.16;52.52;101050.82;1772492;79;21193;-67
2023/04/08 13:38:13;;;;;;;14.20;4.83;;;;;;;18.09;52.74;101054.13;1770068;80;21252;-65
2023/04/08 13:41:19;;;;;;;11.50;5.00;;;;;;;18.08;52.83;101052.39;1790736;79;21195;-65
2023/04/08 13:44:27;;;;;;;16.48;5.10;;;;;;;18.07;52.87;101054.85;1778398;79;21217;-65
2023/04/08 13:47:32;;;;;;;10.95;4.83;;;;;;;18.07;52.93;101056.23;1731790;81;21884;-65
2023/04/08 13:50:39;;;;;;;17.15;4.85;;;;;;;18.12;52.98;101052.84;1802454;79;21157;-64
2023/04/08 13:53:45;;;;;;;17.80;5.22;;;;;;;18.10;52.91;101050.27;1796858;78;21190;-64
2023/04/08 13:56:52;;;;;;;9.80;4.12;;;;;;;18.11;52.94;101051.97;1765530;80;21259;-64
2023/04/08 13:59:57;;;;;;;9.75;3.80;;;;;;;18.15;52.96;101046.35;1793388;78;21165;-66
2023/04/08 14:03:05;;;;;;;9.35;3.52;;;;;;;18.16;52.93;101045.27;1768826;79;21563;-64
2023/04/08 14:06:13;;;;;;;10.00;3.70;;;;;;;18.17;52.89;101046.97;1770754;80;21193;-66
2023/04/08 14:09:20;;;;;;;13.85;3.92;;;;;;;18.15;52.84;101039.42;1775711;78;21210;-64
2023/04/08 14:12:26;;;;;;;13.22;3.90;;;;;;;18.10;52.74;101040.58;1789185;79;21280;-66
2023/04/08 14:15:34;;;;;;;10.00;3.67;;;;;;;18.04;52.75;101037.26;1781368;79;21232;-66
2023/04/08 14:18:41;;;;;;;11.08;3.30;;;;;;;18.05;52.78;101040.34;1784456;79;21210;-65
2023/04/08 14:21:47;;;;;;;10.60;4.10;;;;;;;18.06;52.75;101042.04;1780024;79;21201;-64
2023/04/08 14:24:53;;;;;;;10.28;3.50;;;;;;;18.07;52.76;101040.99;1789015;79;21193;-64